Time;durP1;ratioP1;P1;durP2;ratioP2;P2;SDS_P1;SDS_P2;PMS_P1;PMS_P2;Temp;Humidity;BMP_temperature;BMP_pressure;BME280_temperature;BME280_humidity;BME280_pressure;Samples;Min_cycle;Max_cycle;Signal;HPM_P1;HPM_P2
2021/01/09 00:00:26;;;;;;;13.88;11.30;;;2.20;46.00;;;;;;5014049;28;20566;-75
2021/01/09 00:02:52;;;;;;;12.77;10.85;;;2.10;49.70;;;;;;5014153;28;20049;-75
2021/01/09 00:05:17;;;;;;;14.10;11.50;;;2.10;58.30;;;;;;5013634;28;20036;-76
2021/01/09 00:07:43;;;;;;;13.20;11.35;;;2.20;54.00;;;;;;5014207;28;20034;-75
2021/01/09 00:10:10;;;;;;;12.93;11.35;;;2.20;46.20;;;;;;5014712;28;20030;-74
2021/01/09 00:12:37;;;;;;;12.80;11.13;;;2.10;47.90;;;;;;5014053;28;20026;-76
2021/01/09 00:15:07;;;;;;;14.00;11.13;;;2.30;65.00;;;;;;5000554;28;20037;-74
2021/01/09 00:17:34;;;;;;;13.93;10.95;;;2.30;27.70;;;;;;4996548;28;20496;-73
2021/01/09 00:20:00;;;;;;;13.35;10.65;;;2.30;99.00;;;;;;5003516;28;20045;-74
2021/01/09 00:22:26;;;;;;;13.68;11.57;;;2.40;18.00;;;;;;5014011;28;20458;-75
2021/01/09 00:24:51;;;;;;;12.98;10.77;;;2.50;6.20;;;;;;5015790;28;20022;-75
2021/01/09 00:27:17;;;;;;;11.55;10.10;;;2.50;83.20;;;;;;5017351;28;20538;-73
2021/01/09 00:29:44;;;;;;;12.60;9.73;;;2.50;1.00;;;;;;5021278;28;20022;-74
2021/01/09 00:32:13;;;;;;;9.93;8.95;;;2.40;23.40;;;;;;4995010;28;20129;-76
2021/01/09 00:34:39;;;;;;;12.15;10.88;;;2.30;18.70;;;;;;5025650;28;20049;-77
2021/01/09 00:37:05;;;;;;;12.88;10.60;;;2.30;51.90;;;;;;5012356;28;20481;-76
2021/01/09 00:39:30;;;;;;;12.40;10.02;;;2.40;26.40;;;;;;5000916;28;20026;-76
2021/01/09 00:42:00;;;;;;;13.32;10.90;;;2.20;19.60;;;;;;5003459;28;20018;-77
2021/01/09 00:44:27;;;;;;;11.73;10.32;;;2.20;33.80;;;;;;5004689;28;20560;-76
2021/01/09 00:46:54;;;;;;;13.73;10.68;;;2.10;35.20;;;;;;5013178;28;20050;-76
2021/01/09 00:49:20;;;;;;;11.35;10.15;;;2.30;98.40;;;;;;4996261;28;20030;-76
2021/01/09 00:51:46;;;;;;;10.63;9.52;;;2.40;33.30;;;;;;5012610;28;20022;-76
2021/01/09 00:54:12;;;;;;;15.93;10.82;;;2.40;22.80;;;;;;5023263;28;20022;-76
2021/01/09 00:56:37;;;;;;;12.18;10.35;;;2.40;65.20;;;;;;5002586;28;20052;-76
2021/01/09 00:59:03;;;;;;;13.32;10.52;;;2.40;45.80;;;;;;5001451;28;20068;-77
2021/01/09 01:01:28;;;;;;;12.95;10.77;;;2.60;46.20;;;;;;5016454;28;20034;-76
2021/01/09 01:03:54;;;;;;;12.75;10.35;;;2.50;1.00;;;;;;5004754;28;20038;-75
2021/01/09 01:06:24;;;;;;;12.00;10.13;;;2.30;8.50;;;;;;5000955;28;20034;-77
2021/01/09 01:08:50;;;;;;;14.18;10.38;;;2.50;2.50;;;;;;5010107;28;20036;-76
2021/01/09 01:11:23;;;;;;;11.95;10.25;;;2.40;26.50;;;;;;5019264;28;20032;-78
2021/01/09 01:13:49;;;;;;;14.27;10.73;;;2.40;26.20;;;;;;5015549;28;20018;-76
2021/01/09 01:16:15;;;;;;;12.80;10.18;;;2.60;34.10;;;;;;5026236;28;20029;-77
2021/01/09 01:18:40;;;;;;;14.85;11.73;;;2.60;9.20;;;;;;5004325;28;20065;-76
2021/01/09 01:21:06;;;;;;;13.48;11.68;;;2.60;34.90;;;;;;5020091;28;20033;-75
2021/01/09 01:23:32;;;;;;;17.02;11.00;;;2.70;31.70;;;;;;5021243;28;20038;-75
2021/01/09 01:25:57;;;;;;;13.10;10.93;;;2.70;1.00;;;;;;5019270;28;20030;-75
2021/01/09 01:28:23;;;;;;;12.65;10.60;;;2.50;1.00;;;;;;5020448;28;20394;-73
2021/01/09 01:30:49;;;;;;;13.35;11.93;;;2.40;1.00;;;;;;5016719;28;20025;-74
2021/01/09 01:33:15;;;;;;;13.98;11.75;;;2.40;2.90;;;;;;5020719;28;20052;-74
2021/01/09 01:35:41;;;;;;;15.90;12.75;;;2.30;20.40;;;;;;5004510;28;20022;-76
2021/01/09 01:38:06;;;;;;;15.13;12.70;;;2.20;17.20;;;;;;5017666;28;20489;-75
2021/01/09 01:40:32;;;;;;;15.20;11.75;;;2.10;41.60;;;;;;5008424;28;20025;-76
2021/01/09 01:42:57;;;;;;;17.83;12.68;;;2.10;24.80;;;;;;5004972;28;20379;-75
2021/01/09 01:45:23;;;;;;;16.80;13.82;;;2.10;56.70;;;;;;5018294;28;20030;-75
2021/01/09 01:47:49;;;;;;;15.68;12.80;;;2.10;65.70;;;;;;5016945;28;20034;-76
2021/01/09 01:50:15;;;;;;;16.17;12.50;;;2.10;62.10;;;;;;5016533;28;20026;-76
2021/01/09 01:52:41;;;;;;;17.63;12.15;;;2.10;74.20;;;;;;5000737;28;20504;-75
2021/01/09 01:55:09;;;;;;;17.58;14.02;;;2.10;75.70;;;;;;5016547;28;20022;-77
2021/01/09 01:57:34;;;;;;;16.30;13.45;;;2.20;61.50;;;;;;5019539;28;20402;-77
2021/01/09 02:00:00;;;;;;;16.58;14.20;;;2.20;69.70;;;;;;5011899;28;20105;-76
2021/01/09 02:02:26;;;;;;;20.27;14.82;;;2.20;69.00;;;;;;5014732;28;20053;-75
2021/01/09 02:05:00;;;;;;;17.58;13.65;;;2.30;68.20;;;;;;5019719;28;20022;-76
2021/01/09 02:07:28;;;;;;;18.08;14.93;;;2.20;56.80;;;;;;4999625;28;20080;-75
2021/01/09 02:09:56;;;;;;;16.55;13.48;;;2.20;46.20;;;;;;5005292;28;20452;-75
2021/01/09 02:12:51;;;;;;;16.40;13.75;;;2.20;42.60;;;;;;4999556;28;20025;-75
2021/01/09 02:15:17;;;;;;;14.73;12.90;;;2.20;59.50;;;;;;5003501;28;20065;-75
2021/01/09 02:17:44;;;;;;;17.92;14.32;;;2.20;37.80;;;;;;5017220;28;20049;-75
2021/01/09 02:20:11;;;;;;;15.75;13.77;;;2.20;56.60;;;;;;5001431;28;20098;-74
2021/01/09 02:22:44;;;;;;;17.95;13.52;;;2.20;63.30;;;;;;5016438;28;20113;-74
2021/01/09 02:25:12;;;;;;;17.35;14.85;;;2.20;58.90;;;;;;5007768;28;20030;-73
2021/01/09 02:27:39;;;;;;;17.23;14.30;;;2.20;66.80;;;;;;5018222;28;20022;-72
2021/01/09 02:30:14;;;;;;;21.38;14.73;;;2.20;61.50;;;;;;5016236;28;20486;-72
2021/01/09 02:32:47;;;;;;;21.60;15.57;;;2.20;78.00;;;;;;5013695;28;20026;-74
2021/01/09 02:35:16;;;;;;;18.98;14.90;;;2.10;89.30;;;;;;4999281;28;20095;-73
2021/01/09 02:37:43;;;;;;;18.15;14.63;;;2.20;77.80;;;;;;5017855;28;20105;-72
2021/01/09 02:40:15;;;;;;;20.45;15.02;;;2.20;66.10;;;;;;5012458;28;20041;-73
2021/01/09 02:42:40;;;;;;;16.65;13.52;;;2.20;70.10;;;;;;5002266;28;20096;-74
2021/01/09 02:45:07;;;;;;;17.40;12.70;;;2.20;60.40;;;;;;5014878;28;20037;-73
2021/01/09 02:47:32;;;;;;;18.13;13.65;;;2.20;67.90;;;;;;4997337;28;20017;-72
2021/01/09 02:49:58;;;;;;;17.45;13.77;;;2.10;79.30;;;;;;5015458;28;20121;-73
2021/01/09 02:52:23;;;;;;;21.02;15.18;;;2.10;85.80;;;;;;4997303;28;20025;-72
2021/01/09 02:54:49;;;;;;;18.55;14.57;;;2.20;89.30;;;;;;5016039;28;20030;-72
2021/01/09 02:57:14;;;;;;;20.38;15.15;;;2.40;46.80;;;;;;5015540;28;20037;-72
2021/01/09 02:59:40;;;;;;;19.35;15.93;;;2.60;25.20;;;;;;5017094;28;20033;-75
2021/01/09 03:02:05;;;;;;;18.95;14.27;;;2.50;18.20;;;;;;5017436;28;20042;-75
2021/01/09 03:04:31;;;;;;;19.23;16.15;;;2.40;21.80;;;;;;5016861;28;20033;-75
2021/01/09 03:06:56;;;;;;;21.67;16.40;;;2.40;34.20;;;;;;4999929;28;20040;-72
2021/01/09 03:09:22;;;;;;;21.77;16.73;;;2.30;65.50;;;;;;5003287;28;20030;-73
2021/01/09 03:11:47;;;;;;;22.67;15.70;;;2.30;65.30;;;;;;5026779;28;20030;-74
2021/01/09 03:14:13;;;;;;;20.45;16.05;;;2.30;58.30;;;;;;5025012;28;20061;-73
2021/01/09 03:16:38;;;;;;;20.20;15.82;;;2.30;72.80;;;;;;5032899;28;20021;-73
2021/01/09 03:19:04;;;;;;;20.90;15.45;;;2.40;59.90;;;;;;5019505;28;20014;-70
2021/01/09 03:21:30;;;;;;;20.13;16.02;;;2.40;70.10;;;;;;5034927;28;20070;-75
2021/01/09 03:23:56;;;;;;;20.80;15.70;;;2.50;34.90;;;;;;5030396;28;20009;-76
2021/01/09 03:26:21;;;;;;;20.58;15.77;;;2.60;28.00;;;;;;5035881;28;20026;-77
2021/01/09 03:28:47;;;;;;;25.75;16.65;;;2.30;52.50;;;;;;5034145;28;20026;-77
2021/01/09 03:31:13;;;;;;;21.35;16.42;;;2.30;88.50;;;;;;5034446;28;20026;-75
2021/01/09 03:33:38;;;;;;;20.42;16.27;;;2.50;43.10;;;;;;5026253;28;20129;-77
2021/01/09 03:36:04;;;;;;;22.42;16.98;;;2.50;50.50;;;;;;5026453;28;20037;-74
2021/01/09 03:38:30;;;;;;;22.48;16.90;;;2.60;38.50;;;;;;5023605;28;20450;-75
2021/01/09 03:40:56;;;;;;;24.23;17.67;;;2.60;36.00;;;;;;5026452;28;20198;-76
2021/01/09 03:43:21;;;;;;;20.70;16.70;;;2.70;30.40;;;;;;5026208;28;20029;-77
2021/01/09 03:45:47;;;;;;;22.58;16.20;;;2.60;48.40;;;;;;5027762;28;20026;-75
2021/01/09 03:48:12;;;;;;;22.23;15.38;;;2.50;46.50;;;;;;5038176;28;20034;-75
2021/01/09 03:50:38;;;;;;;23.30;17.38;;;2.40;39.00;;;;;;5029612;28;20034;-75
2021/01/09 03:53:04;;;;;;;23.92;17.60;;;2.40;48.50;;;;;;5017295;28;20022;-75
2021/01/09 03:55:29;;;;;;;25.27;17.75;;;2.50;36.40;;;;;;5026221;28;20018;-74
2021/01/09 03:57:55;;;;;;;21.65;17.40;;;2.50;38.30;;;;;;5025758;28;20026;-76
2021/01/09 04:00:20;;;;;;;22.20;17.55;;;2.50;57.30;;;;;;5028430;28;20034;-74
2021/01/09 04:02:46;;;;;;;22.48;16.25;;;2.60;52.50;;;;;;5028469;28;20033;-76
2021/01/09 04:05:12;;;;;;;22.13;16.13;;;2.60;47.40;;;;;;5028383;28;20030;-76
2021/01/09 04:07:37;;;;;;;25.75;18.77;;;2.60;56.70;;;;;;5026918;28;20030;-76
2021/01/09 04:10:04;;;;;;;21.65;17.13;;;2.60;48.30;;;;;;5029740;28;20076;-76
2021/01/09 04:12:30;;;;;;;23.90;17.20;;;2.30;84.90;;;;;;5030261;28;20075;-74
2021/01/09 04:14:56;;;;;;;23.38;17.20;;;2.40;94.20;;;;;;5028814;28;20117;-76
2021/01/09 04:17:21;;;;;;;26.00;17.73;;;2.50;92.10;;;;;;5009551;28;20034;-76
2021/01/09 04:19:47;;;;;;;21.40;16.77;;;2.50;87.70;;;;;;5016326;28;20034;-75
2021/01/09 04:22:12;;;;;;;21.15;16.08;;;2.60;64.60;;;;;;5031046;28;20064;-75
2021/01/09 04:24:38;;;;;;;24.50;18.40;;;2.60;56.10;;;;;;5032073;28;20037;-76
2021/01/09 04:27:03;;;;;;;22.38;17.30;;;2.50;86.00;;;;;;5033649;28;20097;-76
2021/01/09 04:29:30;;;;;;;25.63;19.00;;;2.20;99.90;;;;;;5028378;28;20645;-76
2021/01/09 04:31:56;;;;;;;28.65;20.02;;;2.30;99.90;;;;;;5006615;28;20022;-74
2021/01/09 04:34:24;;;;;;;22.27;16.60;;;2.20;99.90;;;;;;5025973;28;20093;-75
2021/01/09 04:36:50;;;;;;;25.90;18.50;;;2.20;99.90;;;;;;5018138;28;20029;-75
2021/01/09 04:39:16;;;;;;;25.75;18.85;;;2.10;99.90;;;;;;5041944;28;20030;-75
2021/01/09 04:41:42;;;;;;;25.55;18.73;;;2.00;99.90;;;;;;5031391;28;20037;-75
2021/01/09 04:44:10;;;;;;;24.55;16.95;;;2.00;99.90;;;;;;5032316;28;20029;-75
2021/01/09 04:46:51;;;;;;;22.92;17.30;;;2.10;99.90;;;;;;5023290;28;20480;-75
2021/01/09 04:49:19;;;;;;;23.42;16.83;;;2.20;99.90;;;;;;5016170;28;20044;-74
2021/01/09 04:51:46;;;;;;;25.13;18.70;;;2.20;99.90;;;;;;5017912;28;20022;-75
2021/01/09 04:54:15;;;;;;;26.17;17.27;;;2.20;99.90;;;;;;5020691;28;20030;-76
2021/01/09 04:56:47;;;;;;;25.55;18.20;;;2.20;99.90;;;;;;5020522;28;20022;-76
2021/01/09 04:59:13;;;;;;;29.75;17.92;;;2.20;99.90;;;;;;5025812;28;20051;-75
2021/01/09 05:01:47;;;;;;;25.77;18.05;;;2.20;99.90;;;;;;5024476;28;20026;-75
2021/01/09 05:04:14;;;;;;;26.10;18.08;;;2.30;99.90;;;;;;5002009;28;20057;-75
2021/01/09 05:06:40;;;;;;;25.40;18.70;;;2.30;99.90;;;;;;5017539;28;20030;-76
2021/01/09 05:09:08;;;;;;;26.95;18.40;;;2.10;99.90;;;;;;5018209;28;20077;-76
2021/01/09 05:11:34;;;;;;;25.65;18.83;;;2.30;99.90;;;;;;5005960;28;20026;-75
2021/01/09 05:14:02;;;;;;;23.13;16.75;;;2.30;99.90;;;;;;5017475;28;20155;-76
2021/01/09 05:16:27;;;;;;;27.58;18.95;;;2.40;99.90;;;;;;5002377;28;20033;-75
2021/01/09 05:18:53;;;;;;;24.42;17.40;;;2.40;99.90;;;;;;5025448;28;20029;-74
2021/01/09 05:21:20;;;;;;;25.67;17.90;;;2.50;93.80;;;;;;5021074;28;20034;-77
2021/01/09 05:24:24;;;;;;;24.70;17.27;;;2.40;99.90;;;;;;5022879;28;20480;-76
2021/01/09 05:26:52;;;;;;;28.92;18.38;;;2.50;99.90;;;;;;4982038;28;20042;-76
2021/01/09 05:29:18;;;;;;;26.05;18.67;;;2.50;99.90;;;;;;4983600;28;20037;-75
2021/01/09 05:31:44;;;;;;;28.77;19.77;;;2.40;99.90;;;;;;4998950;28;20030;-76
2021/01/09 05:34:09;;;;;;;26.05;18.63;;;2.30;99.90;;;;;;5016043;28;20045;-77
2021/01/09 05:36:35;;;;;;;26.60;19.65;;;2.40;99.90;;;;;;5016234;28;20034;-75
2021/01/09 05:39:04;;;;;;;24.75;17.65;;;2.50;99.90;;;;;;5015633;28;20803;-76
2021/01/09 05:41:30;;;;;;;23.75;18.15;;;2.50;99.90;;;;;;4998579;28;20055;-75
2021/01/09 05:44:06;;;;;;;25.90;19.33;;;2.40;99.90;;;;;;4996324;28;20023;-76
2021/01/09 05:46:36;;;;;;;29.35;19.38;;;2.40;99.90;;;;;;5016162;28;20033;-76
2021/01/09 05:49:04;;;;;;;29.77;20.10;;;2.40;99.90;;;;;;5021999;28;20052;-75
2021/01/09 05:51:34;;;;;;;26.77;18.60;;;2.40;99.90;;;;;;5016087;28;20057;-76
2021/01/09 05:54:00;;;;;;;26.23;19.42;;;2.30;99.90;;;;;;5017001;28;20025;-76
2021/01/09 05:56:26;;;;;;;24.23;17.98;;;2.40;99.90;;;;;;5001081;28;20030;-75
2021/01/09 05:58:53;;;;;;;24.88;18.60;;;2.00;99.90;;;;;;5024362;28;20034;-76
2021/01/09 06:01:24;;;;;;;28.33;20.38;;;1.70;99.90;;;;;;5025482;28;20037;-75
2021/01/09 06:04:06;;;;;;;29.98;19.98;;;1.70;99.90;;;;;;5020481;28;20108;-76
2021/01/09 06:06:34;;;;;;;26.80;19.73;;;1.80;99.90;;;;;;5026079;28;20030;-75
2021/01/09 06:09:03;;;;;;;27.90;19.80;;;1.80;99.90;;;;;;5025983;28;20112;-77
2021/01/09 06:11:35;;;;;;;28.98;20.23;;;1.90;99.90;;;;;;5014558;28;20026;-75
2021/01/09 06:14:03;;;;;;;26.95;19.02;;;2.00;99.90;;;;;;5015752;28;20077;-74
2021/01/09 06:16:30;;;;;;;29.63;21.42;;;2.00;99.90;;;;;;5015690;28;20112;-76
2021/01/09 06:18:57;;;;;;;25.77;18.63;;;2.20;99.90;;;;;;5015678;28;20030;-76
2021/01/09 06:21:24;;;;;;;28.85;20.20;;;2.30;99.90;;;;;;5015905;28;20042;-75
2021/01/09 06:23:52;;;;;;;26.60;20.05;;;2.30;99.90;;;;;;4995662;28;20030;-76
2021/01/09 06:26:18;;;;;;;28.23;19.50;;;2.20;99.90;;;;;;4994099;28;20026;-74
2021/01/09 06:28:50;;;;;;;28.52;21.58;;;2.20;99.90;;;;;;5015012;28;20028;-75
2021/01/09 06:31:19;;;;;;;28.30;19.80;;;2.20;99.90;;;;;;5015217;28;20097;-75
2021/01/09 06:33:48;;;;;;;28.02;20.17;;;2.20;99.90;;;;;;5015390;28;20029;-75
2021/01/09 06:36:14;;;;;;;30.80;21.58;;;2.20;99.90;;;;;;4997938;28;20022;-75
2021/01/09 06:38:45;;;;;;;29.75;21.05;;;2.20;99.90;;;;;;5015921;28;20093;-75
2021/01/09 06:41:14;;;;;;;30.95;20.95;;;2.10;99.90;;;;;;5023219;28;20048;-75
2021/01/09 06:43:45;;;;;;;29.30;19.48;;;2.00;99.90;;;;;;5015019;28;20033;-75
2021/01/09 06:46:11;;;;;;;;;;;2.20;99.90;;;;;;5015489;28;20029;-76
2021/01/09 06:48:37;;;;;;;32.63;20.30;;;2.00;99.90;;;;;;5016374;28;19932;-76
2021/01/09 06:51:32;;;;;;;32.28;22.42;;;2.10;99.90;;;;;;5002767;28;20054;-76
2021/01/09 06:54:15;;;;;;;32.20;21.27;;;2.00;99.90;;;;;;5014533;28;20026;-76
2021/01/09 06:56:46;;;;;;;32.40;20.40;;;2.10;99.90;;;;;;4998639;28;20095;-75
2021/01/09 06:59:34;;;;;;;31.13;20.92;;;2.10;99.90;;;;;;4999531;28;20034;-75
2021/01/09 07:02:16;;;;;;;30.05;21.23;;;2.10;99.90;;;;;;4989282;28;20084;-75
2021/01/09 07:04:52;;;;;;;31.95;21.90;;;2.20;99.90;;;;;;5014156;28;20109;-74
2021/01/09 07:07:31;;;;;;;32.53;22.02;;;2.00;99.90;;;;;;5014823;28;20034;-75
2021/01/09 07:10:05;;;;;;;32.15;21.67;;;2.10;99.90;;;;;;5010813;28;20030;-75
2021/01/09 07:12:32;;;;;;;31.13;20.15;;;2.10;99.90;;;;;;5001065;28;20015;-77
2021/01/09 07:15:02;;;;;;;39.97;24.73;;;2.20;99.90;;;;;;5017435;28;20109;-74
2021/01/09 07:17:33;;;;;;;33.45;21.58;;;2.00;99.90;;;;;;5019653;28;20107;-75
2021/01/09 07:20:04;;;;;;;31.65;21.20;;;1.90;99.90;;;;;;4998282;28;20034;-75
2021/01/09 07:22:31;;;;;;;33.17;21.15;;;2.00;99.90;;;;;;5015300;28;20049;-75
2021/01/09 07:25:00;;;;;;;32.65;20.13;;;2.20;99.90;;;;;;5000735;28;20026;-76
2021/01/09 07:27:44;;;;;;;32.65;21.92;;;2.20;99.90;;;;;;5011561;28;20525;-75
2021/01/09 07:30:17;;;;;;;27.33;20.00;;;2.30;99.90;;;;;;5014314;28;20026;-77
2021/01/09 07:32:51;;;;;;;24.65;18.38;;;2.30;99.90;;;;;;5015907;28;20021;-75
2021/01/09 07:35:28;;;;;;;30.02;20.23;;;2.30;99.90;;;;;;5015804;28;20414;-76
2021/01/09 07:38:05;;;;;;;31.42;21.52;;;2.20;99.90;;;;;;5014894;28;20046;-76
2021/01/09 07:40:51;;;;;;;29.48;20.60;;;2.10;99.90;;;;;;5014412;28;20046;-75
2021/01/09 07:43:36;;;;;;;30.85;21.42;;;2.00;99.90;;;;;;5017203;28;20041;-76
2021/01/09 07:46:30;;;;;;;30.33;21.50;;;1.80;99.90;;;;;;5013034;28;20026;-76
2021/01/09 07:49:01;;;;;;;37.97;24.23;;;1.90;99.90;;;;;;5024341;28;20053;-76
2021/01/09 07:51:47;;;;;;;38.25;25.35;;;2.00;99.90;;;;;;5009782;28;20034;-76
2021/01/09 07:54:27;;;;;;;33.30;21.75;;;1.90;99.90;;;;;;5007927;28;20053;-76
2021/01/09 07:56:53;;;;;;;35.65;24.10;;;1.80;99.90;;;;;;5009469;28;20048;-75
2021/01/09 07:59:19;;;;;;;31.95;21.83;;;1.80;99.90;;;;;;5015589;28;20108;-75
2021/01/09 08:01:45;;;;;;;35.67;23.70;;;1.90;99.90;;;;;;5019245;28;20022;-74
2021/01/09 08:04:11;;;;;;;32.40;22.20;;;1.90;99.90;;;;;;5019496;28;20030;-75
2021/01/09 08:06:41;;;;;;;31.55;21.10;;;1.90;99.90;;;;;;5001361;28;20033;-76
2021/01/09 08:09:08;;;;;;;30.73;22.30;;;1.90;99.90;;;;;;5021388;28;20037;-75
2021/01/09 08:11:43;;;;;;;33.67;22.65;;;1.90;99.90;;;;;;5012076;28;20032;-75
2021/01/09 08:14:10;;;;;;;30.67;23.40;;;1.90;99.90;;;;;;5020565;28;20041;-75
2021/01/09 08:16:36;;;;;;;36.38;24.02;;;1.90;99.90;;;;;;5019084;28;20080;-76
2021/01/09 08:19:20;;;;;;;38.22;24.17;;;1.90;99.90;;;;;;5018691;28;20017;-75
2021/01/09 08:21:47;;;;;;;35.58;22.90;;;2.00;99.90;;;;;;5019954;28;20485;-76
2021/01/09 08:24:24;;;;;;;33.72;23.33;;;2.00;99.90;;;;;;5009038;28;20087;-76
2021/01/09 08:26:54;;;;;;;34.13;23.58;;;1.90;99.90;;;;;;5023347;28;20501;-77
2021/01/09 08:29:24;;;;;;;38.40;24.23;;;2.10;99.90;;;;;;5021239;28;20088;-75
2021/01/09 08:31:51;;;;;;;30.60;23.07;;;2.10;99.90;;;;;;5022862;28;20026;-75
2021/01/09 08:34:20;;;;;;;36.50;24.95;;;2.20;99.90;;;;;;5021701;28;20311;-75
2021/01/09 08:36:59;;;;;;;33.65;23.73;;;2.30;99.90;;;;;;5019545;28;20034;-76
2021/01/09 08:39:25;;;;;;;37.95;23.05;;;2.40;99.90;;;;;;5018719;28;20041;-76
2021/01/09 08:41:53;;;;;;;36.53;24.38;;;2.40;99.90;;;;;;5020685;28;20029;-76
2021/01/09 08:44:19;;;;;;;38.35;24.38;;;2.40;99.90;;;;;;5014317;28;20030;-76
2021/01/09 08:46:46;;;;;;;34.53;23.73;;;2.40;99.90;;;;;;5024612;28;20075;-76
2021/01/09 08:49:25;;;;;;;32.00;21.63;;;2.50;99.90;;;;;;5008427;28;20037;-75
2021/01/09 08:51:54;;;;;;;40.25;24.73;;;2.30;99.90;;;;;;5030464;28;20006;-75
2021/01/09 08:54:21;;;;;;;37.65;24.45;;;2.30;99.90;;;;;;5021130;28;20076;-75
2021/01/09 08:56:47;;;;;;;37.70;24.15;;;2.30;99.90;;;;;;5033487;28;20045;-74
2021/01/09 08:59:13;;;;;;;34.95;23.30;;;2.30;99.90;;;;;;5014741;28;20034;-75
2021/01/09 09:01:43;;;;;;;33.60;23.38;;;2.30;99.90;;;;;;5024280;28;20557;-75
2021/01/09 09:04:10;;;;;;;37.53;25.27;;;2.30;99.90;;;;;;5024650;28;20030;-76
2021/01/09 09:06:38;;;;;;;38.15;24.95;;;2.40;99.90;;;;;;5029826;28;20126;-75
2021/01/09 09:09:04;;;;;;;37.70;24.95;;;2.40;99.90;;;;;;5019133;28;20022;-76
2021/01/09 09:11:30;;;;;;;40.90;26.92;;;2.50;99.90;;;;;;5019073;28;20108;-76
2021/01/09 09:14:09;;;;;;;31.67;21.55;;;2.60;99.90;;;;;;5020162;28;20415;-77
2021/01/09 09:16:37;;;;;;;34.78;23.60;;;2.60;99.90;;;;;;5024156;28;20022;-75
2021/01/09 09:19:18;;;;;;;37.08;22.98;;;2.60;99.90;;;;;;5016844;28;20040;-75
2021/01/09 09:21:46;;;;;;;39.72;24.95;;;2.50;99.90;;;;;;5017468;28;20037;-76
2021/01/09 09:24:14;;;;;;;38.20;24.73;;;2.20;99.90;;;;;;5009634;28;20034;-76
2021/01/09 09:26:40;;;;;;;39.05;23.98;;;2.20;99.90;;;;;;5008244;28;20030;-75
2021/01/09 09:29:06;;;;;;;37.40;23.40;;;2.10;99.90;;;;;;5008890;28;20160;-76
2021/01/09 09:31:39;;;;;;;35.13;22.98;;;2.40;99.90;;;;;;5016272;28;20053;-76
2021/01/09 09:34:09;;;;;;;29.65;21.05;;;2.40;99.90;;;;;;5016308;28;20044;-75
2021/01/09 09:36:39;;;;;;;32.95;18.90;;;2.40;99.90;;;;;;5015645;28;20497;-77
2021/01/09 09:39:33;;;;;;;35.05;22.02;;;2.40;99.90;;;;;;5016891;28;20034;-75
2021/01/09 09:42:03;;;;;;;30.60;19.83;;;2.30;99.90;;;;;;5013943;28;20113;-75
2021/01/09 09:44:40;;;;;;;28.42;19.27;;;2.20;99.90;;;;;;5000005;28;20063;-75
2021/01/09 09:47:09;;;;;;;28.30;17.60;;;2.10;98.40;;;;;;5025892;28;20525;-76
2021/01/09 09:49:36;;;;;;;28.25;18.90;;;2.20;99.90;;;;;;5001383;28;20093;-76
2021/01/09 09:52:14;;;;;;;28.15;19.30;;;2.30;98.90;;;;;;4999756;28;20022;-75
2021/01/09 09:54:40;;;;;;;27.38;19.00;;;2.30;95.20;;;;;;5015084;28;20018;-77
2021/01/09 09:57:05;;;;;;;28.90;20.38;;;2.40;93.90;;;;;;5023161;28;20025;-77
2021/01/09 09:59:31;;;;;;;28.80;19.67;;;2.30;59.40;;;;;;5018852;28;20080;-77
2021/01/09 10:01:58;;;;;;;22.88;17.25;;;2.50;79.00;;;;;;5020593;28;20022;-76
2021/01/09 10:04:24;;;;;;;24.20;17.48;;;2.40;19.80;;;;;;5004048;28;20041;-77
2021/01/09 10:06:51;;;;;;;23.75;17.35;;;2.50;47.30;;;;;;5020007;28;20037;-77
2021/01/09 10:09:18;;;;;;;26.42;17.50;;;2.30;55.00;;;;;;5020121;28;20029;-76
2021/01/09 10:11:45;;;;;;;26.77;18.00;;;2.70;22.20;;;;;;5025544;28;20466;-76
2021/01/09 10:14:11;;;;;;;25.88;18.05;;;2.80;17.90;;;;;;5004630;28;20037;-75
2021/01/09 10:16:36;;;;;;;21.65;15.90;;;2.90;5.10;;;;;;5018024;28;20061;-75
2021/01/09 10:19:03;;;;;;;25.73;17.50;;;2.80;1.00;;;;;;5017896;28;20571;-75
2021/01/09 10:21:29;;;;;;;24.05;15.50;;;2.90;1.00;;;;;;5008003;28;20029;-76
2021/01/09 10:23:56;;;;;;;25.35;18.38;;;2.90;1.00;;;;;;5008478;28;20097;-75
2021/01/09 10:26:28;;;;;;;23.13;17.20;;;3.00;1.00;;;;;;5016523;28;20033;-75
2021/01/09 10:28:54;;;;;;;25.98;18.30;;;2.60;17.40;;;;;;5017544;28;20060;-76
2021/01/09 10:31:33;;;;;;;23.42;16.13;;;2.40;19.70;;;;;;5018375;28;20030;-75
2021/01/09 10:34:00;;;;;;;25.05;17.65;;;2.60;1.50;;;;;;5021961;28;20029;-76
2021/01/09 10:36:32;;;;;;;22.60;16.33;;;2.60;1.00;;;;;;5005871;28;20025;-75
2021/01/09 10:38:58;;;;;;;25.40;17.45;;;2.40;1.40;;;;;;5012877;28;20076;-75
2021/01/09 10:41:24;;;;;;;26.35;18.52;;;2.40;21.40;;;;;;5016586;28;20026;-76
2021/01/09 10:43:51;;;;;;;24.35;16.58;;;2.60;11.60;;;;;;5015576;28;20022;-75
2021/01/09 10:46:25;;;;;;;27.35;18.42;;;2.60;1.00;;;;;;5015618;28;20041;-75
2021/01/09 10:48:52;;;;;;;29.00;18.35;;;2.70;1.00;;;;;;5009600;28;20081;-75
2021/01/09 10:51:21;;;;;;;25.80;17.90;;;2.60;1.00;;;;;;5040551;28;20139;-75
2021/01/09 10:53:47;;;;;;;29.77;16.65;;;2.50;24.00;;;;;;5035262;28;20021;-74
2021/01/09 10:56:13;;;;;;;23.67;17.67;;;2.70;2.80;;;;;;5035259;28;20021;-75
2021/01/09 10:58:39;;;;;;;21.00;16.25;;;3.10;1.00;;;;;;5035621;28;20034;-75
2021/01/09 11:01:05;;;;;;;22.30;16.02;;;3.00;1.00;;;;;;5036866;28;20026;-74
2021/01/09 11:03:31;;;;;;;23.70;16.55;;;3.10;1.00;;;;;;5045476;28;20029;-74
2021/01/09 11:05:57;;;;;;;23.73;15.93;;;3.30;1.00;;;;;;5025194;28;20546;-77
2021/01/09 11:08:23;;;;;;;23.27;17.13;;;2.90;1.00;;;;;;5020844;28;20029;-74
2021/01/09 11:10:52;;;;;;;25.40;16.90;;;2.90;1.00;;;;;;5019397;28;20489;-75
2021/01/09 11:13:17;;;;;;;22.30;16.88;;;3.20;1.00;;;;;;5024536;28;20036;-75
2021/01/09 11:15:46;;;;;;;22.20;16.38;;;3.50;1.00;;;;;;5017156;28;20030;-75
2021/01/09 11:18:12;;;;;;;23.08;16.13;;;3.60;1.00;;;;;;5027188;28;20029;-76
2021/01/09 11:20:38;;;;;;;22.63;16.58;;;3.70;99.90;;;;;;5022077;28;20022;-75
2021/01/09 11:23:05;;;;;;;19.77;15.38;;;3.60;99.90;;;;;;5019288;28;20055;-77
2021/01/09 11:25:30;;;;;;;19.80;13.27;;;3.40;1.00;;;;;;5005099;28;20021;-75
2021/01/09 11:27:56;;;;;;;18.90;14.60;;;3.50;99.90;;;;;;5024427;28;20021;-76
2021/01/09 11:30:22;;;;;;;23.58;15.65;;;3.80;99.90;;;;;;5019378;28;20064;-76
2021/01/09 11:32:47;;;;;;;21.33;13.25;;;3.70;99.90;;;;;;5028796;28;20112;-75
2021/01/09 11:35:13;;;;;;;15.02;11.25;;;3.70;99.90;;;;;;5022682;28;20026;-75
2021/01/09 11:37:38;;;;;;;13.90;11.43;;;3.60;99.90;;;;;;5020059;28;20030;-74
2021/01/09 11:40:05;;;;;;;15.65;10.48;;;3.30;99.90;;;;;;5014272;28;20022;-75
2021/01/09 11:42:31;;;;;;;12.10;9.65;;;3.30;99.90;;;;;;5021085;28;20025;-76
2021/01/09 11:44:56;;;;;;;12.68;9.10;;;3.20;99.90;;;;;;5006709;28;20037;-76
2021/01/09 11:47:22;;;;;;;14.63;10.15;;;3.20;99.90;;;;;;4990652;28;20026;-74
2021/01/09 11:49:48;;;;;;;12.23;9.98;;;3.00;99.90;;;;;;5001899;28;20029;-74
2021/01/09 11:52:13;;;;;;;10.60;8.98;;;3.10;99.90;;;;;;5014109;28;20474;-76
2021/01/09 11:54:39;;;;;;;12.00;7.35;;;2.90;99.90;;;;;;5015426;28;20109;-75
2021/01/09 11:57:05;;;;;;;9.93;7.20;;;3.00;1.00;;;;;;5016086;28;20022;-75
2021/01/09 11:59:31;;;;;;;8.32;7.15;;;3.00;1.00;;;;;;5014018;28;20030;-76
2021/01/09 12:01:57;;;;;;;9.63;8.00;;;3.00;1.00;;;;;;5015180;28;20026;-75
2021/01/09 12:04:23;;;;;;;12.10;8.65;;;3.00;1.00;;;;;;5017067;28;20045;-77
2021/01/09 12:06:48;;;;;;;9.73;8.50;;;3.10;1.00;;;;;;5016854;28;20106;-76
2021/01/09 12:09:14;;;;;;;9.30;7.28;;;3.20;1.00;;;;;;5016437;28;20378;-76
2021/01/09 12:11:39;;;;;;;9.65;7.75;;;3.30;1.00;;;;;;5025881;28;20041;-76
2021/01/09 12:14:06;;;;;;;11.95;8.27;;;3.40;1.00;;;;;;5028881;28;20050;-75
2021/01/09 12:16:33;;;;;;;8.82;7.13;;;3.50;99.90;;;;;;5027496;28;20053;-76
2021/01/09 12:18:59;;;;;;;9.25;7.07;;;3.70;99.90;;;;;;5013719;28;20456;-75
2021/01/09 12:21:31;;;;;;;12.43;7.35;;;3.70;99.90;;;;;;5021455;28;20026;-76
2021/01/09 12:23:57;;;;;;;9.35;7.47;;;3.40;99.90;;;;;;5007836;28;20030;-75
2021/01/09 12:26:23;;;;;;;9.32;7.65;;;3.50;1.00;;;;;;5017551;28;20467;-76
2021/01/09 12:28:49;;;;;;;8.48;7.13;;;3.50;99.90;;;;;;4998849;28;20069;-76
2021/01/09 12:31:14;;;;;;;7.97;6.70;;;3.40;99.90;;;;;;5014025;28;20030;-76
2021/01/09 12:33:41;;;;;;;8.63;6.93;;;3.30;99.90;;;;;;5006758;28;20080;-75
2021/01/09 12:36:08;;;;;;;8.30;7.13;;;3.20;99.90;;;;;;5018479;28;20034;-75
2021/01/09 12:38:34;;;;;;;9.73;6.60;;;3.30;1.00;;;;;;5018477;28;20034;-76
2021/01/09 12:40:59;;;;;;;8.30;6.82;;;3.40;99.90;;;;;;5005314;28;20084;-77
2021/01/09 12:43:25;;;;;;;9.20;7.10;;;3.40;99.90;;;;;;5001038;28;20080;-74
2021/01/09 12:45:54;;;;;;;9.55;7.82;;;3.50;99.90;;;;;;5017856;28;20105;-75